Time;durP1;ratioP1;P1;durP2;ratioP2;P2;SDS_P1;SDS_P2;PMS_P1;PMS_P2;Temp;Humidity;BMP_temperature;BMP_pressure;BME280_temperature;BME280_humidity;BME280_pressure;Samples;Min_cycle;Max_cycle;Signal;HPM_P1;HPM_P2
2022/12/24 00:02:53;;;;;;;18.67;15.03;;;7.40;99.90;;;;;;6300324;28;20476;-60
2022/12/24 00:05:58;;;;;;;19.60;17.07;;;7.40;99.90;;;;;;6299975;28;20496;-60
2022/12/24 00:09:02;;;;;;;18.00;14.63;;;7.50;99.90;;;;;;6299104;28;20489;-60
2022/12/24 00:12:06;;;;;;;18.50;16.50;;;7.50;99.90;;;;;;6299730;28;20484;-60
2022/12/24 00:15:10;;;;;;;18.00;16.13;;;7.60;99.90;;;;;;6300265;28;20480;-60
2022/12/24 00:18:13;;;;;;;19.33;17.23;;;7.60;99.90;;;;;;6299520;28;20472;-60
2022/12/24 00:21:18;;;;;;;17.77;15.97;;;7.60;99.90;;;;;;6299923;28;20441;-60
2022/12/24 00:24:21;;;;;;;20.30;16.57;;;7.60;99.90;;;;;;6300121;28;20469;-60
2022/12/24 00:27:24;;;;;;;23.63;19.53;;;7.60;99.90;;;;;;6299392;28;20484;-60
2022/12/24 00:30:27;;;;;;;27.20;24.67;;;7.60;99.90;;;;;;6299397;28;20445;-60
2022/12/24 00:33:30;;;;;;;22.67;20.30;;;7.50;99.90;;;;;;6299056;28;20441;-61
2022/12/24 00:36:35;;;;;;;20.43;16.07;;;7.50;99.90;;;;;;6300101;28;20929;-60
2022/12/24 00:39:38;;;;;;;23.07;15.60;;;7.40;99.90;;;;;;6299697;28;20465;-60
2022/12/24 00:42:41;;;;;;;16.70;14.77;;;7.30;99.90;;;;;;6299478;28;20798;-60
2022/12/24 00:45:44;;;;;;;16.97;13.47;;;7.30;99.90;;;;;;6299250;28;20476;-60
2022/12/24 00:48:48;;;;;;;17.47;14.97;;;7.30;99.90;;;;;;6299214;28;20469;-60
2022/12/24 00:51:53;;;;;;;18.13;14.20;;;7.30;99.90;;;;;;6299244;28;20765;-60
2022/12/24 00:54:56;;;;;;;21.63;15.97;;;7.30;99.90;;;;;;6299032;28;20968;-60
2022/12/24 00:57:59;;;;;;;17.93;16.10;;;7.20;99.90;;;;;;6298840;28;20484;-60
2022/12/24 01:01:02;;;;;;;19.13;14.70;;;7.20;99.90;;;;;;6298916;28;20465;-60
2022/12/24 01:07:28;;;;;;;13.30;11.90;;;7.20;99.90;;;;;;6298356;28;20804;-60
2022/12/24 01:10:31;;;;;;;18.03;11.77;;;7.10;99.90;;;;;;6298825;28;20781;-60
2022/12/24 01:13:34;;;;;;;11.97;10.77;;;7.00;99.90;;;;;;6302730;28;20481;-60
2022/12/24 01:16:38;;;;;;;13.07;11.70;;;6.90;99.90;;;;;;6303400;28;20469;-60
2022/12/24 01:19:41;;;;;;;12.23;11.03;;;7.00;99.90;;;;;;6281907;28;20577;-60
2022/12/24 01:22:46;;;;;;;16.67;12.33;;;6.90;99.90;;;;;;6278271;28;20474;-60
2022/12/24 01:25:49;;;;;;;17.27;10.83;;;6.90;99.90;;;;;;6278596;28;20478;-60
2022/12/24 01:28:52;;;;;;;12.20;10.73;;;6.90;99.90;;;;;;6278534;28;20485;-60
2022/12/24 01:31:55;;;;;;;15.27;11.30;;;6.90;99.90;;;;;;6278427;28;20479;-60
2022/12/24 01:34:59;;;;;;;13.87;10.50;;;6.90;99.90;;;;;;6278724;28;20771;-60
2022/12/24 01:38:03;;;;;;;12.57;11.27;;;6.90;99.90;;;;;;6278160;28;20470;-60
2022/12/24 01:44:30;;;;;;;12.50;11.20;;;6.90;99.90;;;;;;6277905;28;20981;-60
2022/12/24 01:47:38;;;;;;;12.47;11.10;;;6.80;99.90;;;;;;6278053;28;20779;-60
2022/12/24 01:50:42;;;;;;;12.23;10.97;;;6.80;99.90;;;;;;6277887;28;21075;-60
2022/12/24 01:53:52;;;;;;;13.07;10.27;;;6.80;99.90;;;;;;6278135;28;20474;-60
2022/12/24 01:56:59;;;;;;;15.00;10.90;;;6.70;99.90;;;;;;6278031;28;20869;-60
2022/12/24 02:00:07;;;;;;;12.23;9.90;;;6.80;99.90;;;;;;6277771;28;20466;-60
2022/12/24 02:03:10;;;;;;;9.83;8.83;;;6.70;99.90;;;;;;6277704;28;20478;-60
2022/12/24 02:06:15;;;;;;;9.97;8.97;;;6.70;99.90;;;;;;6277422;28;20489;-60
2022/12/24 02:09:19;;;;;;;12.03;10.83;;;6.80;99.90;;;;;;6252927;28;20475;-60
2022/12/24 02:12:23;;;;;;;9.37;8.43;;;6.80;99.90;;;;;;6277519;28;20485;-60
2022/12/24 02:15:28;;;;;;;9.50;8.50;;;6.80;99.90;;;;;;6277164;28;20438;-60
2022/12/24 02:18:38;;;;;;;9.57;8.37;;;6.80;99.90;;;;;;6289154;28;20449;-60
2022/12/24 02:21:51;;;;;;;11.17;8.50;;;6.80;99.90;;;;;;6301850;28;20810;-60
2022/12/24 02:25:16;;;;;;;10.97;9.00;;;6.80;99.90;;;;;;6302019;28;20461;-60
2022/12/24 02:28:36;;;;;;;10.40;8.40;;;6.70;99.90;;;;;;6302120;28;20477;-60
2022/12/24 02:31:45;;;;;;;8.70;7.67;;;6.70;99.90;;;;;;6302524;28;20473;-60
2022/12/24 02:34:52;;;;;;;8.30;7.40;;;6.60;99.90;;;;;;6302014;28;20919;-60
2022/12/24 02:37:59;;;;;;;11.53;8.60;;;6.60;99.90;;;;;;6302011;28;20531;-60
2022/12/24 02:41:07;;;;;;;13.27;11.13;;;6.70;99.90;;;;;;6301486;28;20480;-60
2022/12/24 02:44:10;;;;;;;24.67;17.50;;;6.60;99.90;;;;;;6301511;28;20484;-60
2022/12/24 02:47:16;;;;;;;20.20;15.03;;;6.50;99.90;;;;;;6301656;28;20473;-60
2022/12/24 02:50:20;;;;;;;25.73;17.93;;;6.50;99.90;;;;;;6301422;28;20473;-60
2022/12/24 02:53:23;;;;;;;19.40;14.47;;;6.50;99.90;;;;;;6301127;28;20530;-60
2022/12/24 02:56:45;;;;;;;19.20;15.43;;;6.40;99.90;;;;;;6301092;28;20858;-60
2022/12/24 03:00:02;;;;;;;21.53;17.83;;;6.30;99.90;;;;;;6300969;28;20477;-60
2022/12/24 03:03:20;;;;;;;24.13;17.70;;;6.20;99.90;;;;;;6301292;28;20466;-60
2022/12/24 03:06:32;;;;;;;23.60;19.53;;;6.10;99.90;;;;;;6300482;28;20453;-60
2022/12/24 03:09:43;;;;;;;24.97;18.10;;;6.10;99.90;;;;;;6300890;28;20469;-60
2022/12/24 03:12:50;;;;;;;20.87;18.30;;;5.90;99.90;;;;;;6300412;28;20479;-60
2022/12/24 03:15:53;;;;;;;19.73;15.60;;;6.00;99.90;;;;;;6300863;28;20473;-60
2022/12/24 03:18:59;;;;;;;21.43;16.33;;;5.90;99.90;;;;;;6300466;28;20850;-60
2022/12/24 03:22:05;;;;;;;23.63;17.50;;;5.90;99.90;;;;;;6301434;28;20469;-59
2022/12/24 03:25:09;;;;;;;21.53;18.13;;;5.90;99.90;;;;;;6300551;28;20790;-59
2022/12/24 03:28:14;;;;;;;20.00;14.87;;;5.90;99.90;;;;;;6300671;28;20504;-60
2022/12/24 03:31:18;;;;;;;15.03;13.27;;;5.90;99.90;;;;;;6300735;28;20469;-59
2022/12/24 03:34:23;;;;;;;17.67;15.80;;;5.70;99.90;;;;;;6300350;28;20480;-59
2022/12/24 03:37:26;;;;;;;17.90;14.53;;;5.70;99.90;;;;;;6299833;28;20477;-60
2022/12/24 03:40:29;;;;;;;17.07;14.90;;;5.60;99.90;;;;;;6300374;28;20905;-60
2022/12/24 03:43:33;;;;;;;16.37;14.10;;;5.60;99.90;;;;;;6300082;28;20498;-60
2022/12/24 03:46:36;;;;;;;17.03;15.27;;;5.70;99.90;;;;;;6300572;28;20472;-60
2022/12/24 03:49:41;;;;;;;17.43;15.47;;;5.60;99.90;;;;;;6300091;28;20488;-60
2022/12/24 03:52:44;;;;;;;16.50;14.80;;;5.60;99.90;;;;;;6300251;28;20488;-59
2022/12/24 03:55:47;;;;;;;21.20;15.57;;;5.60;99.90;;;;;;6300154;28;20480;-60
2022/12/24 03:58:51;;;;;;;18.87;15.10;;;5.60;99.90;;;;;;6299527;28;20473;-59
2022/12/24 04:01:54;;;;;;;15.90;13.67;;;5.50;99.90;;;;;;6300019;28;20550;-60
2022/12/24 04:04:59;;;;;;;16.80;14.43;;;5.50;99.90;;;;;;6299838;28;20469;-59
2022/12/24 04:08:02;;;;;;;16.90;15.13;;;5.50;99.90;;;;;;6300404;28;20478;-59
2022/12/24 04:11:07;;;;;;;15.57;14.13;;;5.50;99.90;;;;;;6299447;28;20530;-59
2022/12/24 04:14:12;;;;;;;17.37;13.70;;;5.50;99.90;;;;;;6299668;28;20466;-59
2022/12/24 04:17:15;;;;;;;17.23;13.93;;;5.50;99.90;;;;;;6299344;28;20807;-59
2022/12/24 04:20:19;;;;;;;15.70;13.93;;;5.50;99.90;;;;;;6299220;28;20466;-59
2022/12/24 04:23:23;;;;;;;18.40;13.30;;;5.50;99.90;;;;;;6299057;28;20802;-59
2022/12/24 04:26:27;;;;;;;16.63;14.10;;;5.60;99.90;;;;;;6299309;28;20485;-59
2022/12/24 04:29:30;;;;;;;15.20;13.27;;;5.50;99.90;;;;;;6299319;28;20971;-59
2022/12/24 04:32:33;;;;;;;15.33;13.73;;;5.50;99.90;;;;;;6299450;28;20766;-59
2022/12/24 04:35:41;;;;;;;15.90;14.00;;;5.50;99.90;;;;;;6299580;28;20476;-59
2022/12/24 04:38:44;;;;;;;18.70;15.90;;;5.50;99.90;;;;;;6299571;28;20978;-59
2022/12/24 04:41:47;;;;;;;17.20;14.57;;;5.40;99.90;;;;;;6299880;28;20476;-59
2022/12/24 04:44:50;;;;;;;15.40;13.27;;;5.40;99.90;;;;;;6299741;28;20481;-59
2022/12/24 04:47:54;;;;;;;16.13;14.50;;;5.30;99.90;;;;;;6304292;28;20481;-59
2022/12/24 04:51:01;;;;;;;17.40;13.07;;;5.30;99.90;;;;;;6304123;28;21102;-59
2022/12/24 04:54:04;;;;;;;14.60;13.10;;;5.30;99.90;;;;;;6304612;28;20465;-59
2022/12/24 04:57:07;;;;;;;13.30;12.10;;;5.30;99.90;;;;;;6304224;28;20964;-59
2022/12/24 05:00:12;;;;;;;13.37;12.03;;;5.30;99.90;;;;;;6304016;28;20476;-60
2022/12/24 05:03:15;;;;;;;11.00;9.93;;;5.20;99.90;;;;;;6302542;28;20459;-59
2022/12/24 05:06:22;;;;;;;13.97;10.83;;;5.20;99.90;;;;;;6304062;28;20880;-59
2022/12/24 05:09:25;;;;;;;13.47;11.67;;;5.20;99.90;;;;;;6303645;28;20464;-59
2022/12/24 05:12:29;;;;;;;11.10;9.90;;;5.20;99.90;;;;;;6303817;28;20477;-59
2022/12/24 05:15:32;;;;;;;13.73;11.90;;;5.20;99.90;;;;;;6303646;28;20933;-59
2022/12/24 05:18:35;;;;;;;12.87;11.57;;;5.20;99.90;;;;;;6303682;28;20473;-59
2022/12/24 05:21:40;;;;;;;16.43;11.47;;;5.20;99.90;;;;;;6303394;28;20472;-59
2022/12/24 05:28:03;;;;;;;12.40;10.33;;;5.20;99.90;;;;;;6303407;28;20818;-60
2022/12/24 05:31:06;;;;;;;11.90;10.30;;;5.10;99.90;;;;;;6303559;28;20468;-60
2022/12/24 05:34:11;;;;;;;12.23;10.87;;;5.20;99.90;;;;;;6303015;28;20544;-60
2022/12/24 05:37:15;;;;;;;10.60;9.60;;;5.20;99.90;;;;;;6303014;28;20492;-60
2022/12/24 05:40:18;;;;;;;13.13;10.67;;;5.20;99.90;;;;;;6302779;28;20799;-60
2022/12/24 05:43:22;;;;;;;12.57;9.70;;;5.20;99.90;;;;;;6304033;28;20476;-60
2022/12/24 05:46:25;;;;;;;13.90;10.30;;;5.10;99.90;;;;;;6304101;28;20466;-60
2022/12/24 05:49:29;;;;;;;12.67;11.37;;;5.10;99.90;;;;;;6303230;28;20473;-60
2022/12/24 05:52:34;;;;;;;12.67;10.60;;;5.10;99.90;;;;;;6303433;28;20465;-60
2022/12/24 05:55:37;;;;;;;12.10;10.60;;;5.10;99.90;;;;;;6302690;28;20479;-60
2022/12/24 05:58:41;;;;;;;13.60;10.90;;;5.10;99.90;;;;;;6301368;28;20469;-60
2022/12/24 06:01:46;;;;;;;14.13;10.33;;;5.00;99.90;;;;;;6302575;28;20845;-60
2022/12/24 06:04:50;;;;;;;10.77;9.67;;;5.00;99.90;;;;;;6302956;28;20481;-60
2022/12/24 06:07:54;;;;;;;15.37;11.10;;;5.10;99.90;;;;;;6298005;28;20473;-60
2022/12/24 06:10:58;;;;;;;13.63;9.60;;;5.00;99.90;;;;;;6302394;28;20814;-60
2022/12/24 06:14:01;;;;;;;10.20;9.20;;;5.00;99.90;;;;;;6302760;28;20481;-60
2022/12/24 06:17:05;;;;;;;9.13;8.33;;;4.90;99.90;;;;;;6302318;28;20488;-60
2022/12/24 06:20:09;;;;;;;12.27;8.97;;;4.90;99.90;;;;;;6277780;28;20454;-60
2022/12/24 06:23:13;;;;;;;9.77;8.67;;;4.90;99.90;;;;;;6277257;28;20965;-60
2022/12/24 06:26:18;;;;;;;10.43;9.37;;;4.90;99.90;;;;;;6277227;28;20909;-60
2022/12/24 06:29:22;;;;;;;12.90;8.63;;;4.80;99.90;;;;;;6277442;28;20474;-60
2022/12/24 06:32:25;;;;;;;10.00;9.00;;;4.80;99.90;;;;;;6276869;28;20477;-60
2022/12/24 06:35:28;;;;;;;8.97;7.50;;;4.80;99.90;;;;;;6276745;28;20481;-60
2022/12/24 06:38:33;;;;;;;8.30;7.50;;;4.80;99.90;;;;;;6277146;28;20481;-60
2022/12/24 06:41:36;;;;;;;8.90;8.10;;;4.80;99.90;;;;;;6277062;28;20477;-60
2022/12/24 06:44:39;;;;;;;8.20;7.00;;;4.80;99.90;;;;;;6276908;28;20512;-59
2022/12/24 06:47:42;;;;;;;8.03;7.23;;;4.80;99.90;;;;;;6276330;28;20478;-60
2022/12/24 06:50:45;;;;;;;10.30;8.23;;;4.80;99.90;;;;;;6277047;28;20481;-60
2022/12/24 06:53:50;;;;;;;7.67;6.97;;;4.80;99.90;;;;;;6276885;28;20482;-59
2022/12/24 06:56:53;;;;;;;8.07;6.90;;;4.80;99.90;;;;;;6276865;28;20474;-60
2022/12/24 07:00:00;;;;;;;9.90;8.70;;;4.80;99.90;;;;;;6276542;28;20462;-60
2022/12/24 07:03:03;;;;;;;8.40;7.57;;;4.80;99.90;;;;;;6276001;28;20811;-60
2022/12/24 07:06:07;;;;;;;11.73;8.47;;;4.80;99.90;;;;;;6276413;28;20474;-60
2022/12/24 07:09:13;;;;;;;12.93;10.37;;;4.80;99.90;;;;;;6276486;28;20478;-61
2022/12/24 07:12:16;;;;;;;11.27;9.23;;;4.80;99.90;;;;;;6275149;28;20780;-59
2022/12/24 07:15:20;;;;;;;9.87;8.70;;;4.80;99.90;;;;;;6276666;28;20442;-59
2022/12/24 07:18:23;;;;;;;9.97;8.40;;;4.90;99.90;;;;;;6287057;28;20466;-59
2022/12/24 07:21:26;;;;;;;10.17;8.10;;;5.00;99.90;;;;;;6300955;28;20433;-59
2022/12/24 07:24:31;;;;;;;8.33;7.53;;;5.00;99.90;;;;;;6300938;28;20441;-59
2022/12/24 07:27:34;;;;;;;10.70;8.67;;;5.10;99.90;;;;;;6300631;28;20458;-59
2022/12/24 07:30:37;;;;;;;12.93;11.60;;;5.10;99.90;;;;;;6300598;28;20909;-59
2022/12/24 07:33:40;;;;;;;9.67;8.87;;;5.10;99.90;;;;;;6300571;28;20465;-59
2022/12/24 07:36:43;;;;;;;10.73;9.63;;;5.20;99.90;;;;;;6300615;28;20469;-59
2022/12/24 07:39:48;;;;;;;9.27;8.30;;;5.40;99.90;;;;;;6299885;28;20465;-59
2022/12/24 07:42:51;;;;;;;10.13;8.90;;;5.50;99.90;;;;;;6300571;28;20544;-60
2022/12/24 07:45:56;;;;;;;8.43;7.63;;;5.70;99.90;;;;;;6300683;28;20987;-60
2022/12/24 07:49:00;;;;;;;9.03;8.20;;;5.90;99.90;;;;;;6300687;28;20480;-60
2022/12/24 07:52:03;;;;;;;9.07;8.10;;;6.00;99.90;;;;;;6300583;28;20563;-60
2022/12/24 07:55:09;;;;;;;8.40;7.60;;;6.10;99.90;;;;;;6300825;28;20477;-60
2022/12/24 07:58:12;;;;;;;8.17;7.40;;;6.10;99.90;;;;;;6300101;28;20483;-60
2022/12/24 08:01:15;;;;;;;11.57;10.43;;;6.20;99.90;;;;;;6300187;28;20465;-59
2022/12/24 08:04:18;;;;;;;13.87;10.80;;;6.30;99.90;;;;;;6301187;28;20525;-59
2022/12/24 08:07:21;;;;;;;13.60;10.60;;;6.30;99.90;;;;;;6305014;28;20585;-60
2022/12/24 08:10:26;;;;;;;10.97;8.57;;;6.30;99.90;;;;;;6306782;28;20480;-60
2022/12/24 08:13:29;;;;;;;8.37;7.47;;;6.50;99.90;;;;;;6299513;28;20481;-60
2022/12/24 08:16:32;;;;;;;9.23;8.27;;;6.70;99.90;;;;;;6300197;28;20465;-60
2022/12/24 08:19:36;;;;;;;9.27;7.57;;;6.90;99.90;;;;;;6278476;28;20485;-60
2022/12/24 08:22:39;;;;;;;7.80;7.10;;;7.00;99.90;;;;;;6275013;28;20481;-60
2022/12/24 08:25:45;;;;;;;9.47;8.47;;;7.00;99.90;;;;;;6274766;28;20481;-60
2022/12/24 08:28:48;;;;;;;10.50;9.50;;;7.10;99.90;;;;;;6274651;28;20471;-60
2022/12/24 08:31:51;;;;;;;10.80;9.70;;;7.20;99.90;;;;;;6274927;28;20485;-60
2022/12/24 08:34:55;;;;;;;10.60;8.87;;;7.20;99.90;;;;;;6274247;28;20474;-60
2022/12/24 08:37:58;;;;;;;10.53;8.67;;;7.20;99.90;;;;;;6274887;28;20478;-60
2022/12/24 08:41:02;;;;;;;11.87;10.67;;;7.10;99.90;;;;;;6274657;28;20470;-60
2022/12/24 08:44:06;;;;;;;10.83;9.83;;;7.10;99.90;;;;;;6275069;28;20470;-60
2022/12/24 08:47:09;;;;;;;10.87;9.83;;;7.10;99.90;;;;;;6274417;28;20478;-60
2022/12/24 08:50:12;;;;;;;8.90;8.10;;;7.10;99.90;;;;;;6274412;28;20482;-60
2022/12/24 08:53:16;;;;;;;11.40;10.40;;;7.10;99.90;;;;;;6274799;28;20466;-60
2022/12/24 08:56:21;;;;;;;11.27;10.17;;;7.20;99.90;;;;;;6274581;28;20470;-60
2022/12/24 08:59:24;;;;;;;10.43;9.40;;;7.20;99.90;;;;;;6274386;28;20466;-60
2022/12/24 09:02:27;;;;;;;9.87;8.97;;;7.40;99.90;;;;;;6275049;28;20481;-60
2022/12/24 09:05:31;;;;;;;9.60;8.70;;;7.60;99.90;;;;;;6274654;28;20478;-60
2022/12/24 09:08:35;;;;;;;10.47;9.40;;;7.60;99.90;;;;;;6274420;28;20478;-60
2022/12/24 09:11:40;;;;;;;10.63;9.13;;;7.80;99.90;;;;;;6274119;28;21019;-60
2022/12/24 09:14:43;;;;;;;9.90;7.80;;;7.90;99.90;;;;;;6270207;28;20561;-60
2022/12/24 09:17:46;;;;;;;11.03;9.87;;;8.00;99.90;;;;;;6279689;28;20469;-60
2022/12/24 09:20:49;;;;;;;12.73;11.30;;;8.00;99.90;;;;;;6299174;28;20468;-60
2022/12/24 09:24:00;;;;;;;11.43;9.97;;;8.00;99.90;;;;;;6298873;28;20466;-60
2022/12/24 09:27:04;;;;;;;11.50;10.40;;;8.10;99.90;;;;;;6298401;28;20495;-58
2022/12/24 09:30:09;;;;;;;12.87;11.57;;;8.20;99.90;;;;;;6298686;28;20488;-60
2022/12/24 09:33:12;;;;;;;14.20;12.60;;;8.20;99.90;;;;;;6300662;28;20477;-60
2022/12/24 09:36:16;;;;;;;18.60;15.70;;;8.10;99.90;;;;;;6303419;28;20964;-60
2022/12/24 09:39:19;;;;;;;18.60;16.70;;;8.00;99.90;;;;;;6278242;28;20462;-60
2022/12/24 09:42:34;;;;;;;18.40;16.47;;;7.90;99.90;;;;;;6278438;28;20442;-60
2022/12/24 09:45:41;;;;;;;22.10;19.37;;;8.00;99.90;;;;;;6278174;28;20465;-60
2022/12/24 09:48:48;;;;;;;19.07;17.13;;;8.30;99.90;;;;;;6278635;28;20474;-60
2022/12/24 09:51:56;;;;;;;19.07;16.80;;;8.50;99.90;;;;;;6277855;28;20470;-60
2022/12/24 09:55:06;;;;;;;18.50;16.70;;;8.70;99.90;;;;;;6278017;28;20469;-60
2022/12/24 09:58:20;;;;;;;20.57;17.93;;;8.90;99.90;;;;;;6278043;28;20474;-60
2022/12/24 10:01:23;;;;;;;20.43;17.77;;;9.10;99.90;;;;;;6277541;28;20961;-60
2022/12/24 10:04:32;;;;;;;20.03;18.03;;;9.20;99.90;;;;;;6277773;28;20476;-60
2022/12/24 10:07:48;;;;;;;19.70;17.27;;;9.30;99.90;;;;;;6277824;28;20497;-60
2022/12/24 10:10:54;;;;;;;23.50;19.33;;;9.40;99.90;;;;;;6277546;28;20911;-61
2022/12/24 10:14:10;;;;;;;19.83;17.83;;;9.40;99.90;;;;;;6278094;28;20476;-60
2022/12/24 10:17:30;;;;;;;17.40;15.37;;;9.50;99.90;;;;;;6275842;28;20997;-60
2022/12/24 10:20:42;;;;;;;17.23;15.50;;;9.60;99.90;;;;;;6252648;28;20967;-61
2022/12/24 10:23:51;;;;;;;17.73;15.83;;;9.90;99.90;;;;;;6252654;28;20467;-60
2022/12/24 10:26:59;;;;;;;17.77;15.90;;;10.10;99.90;;;;;;6252248;28;20474;-61
2022/12/24 10:30:13;;;;;;;16.53;14.97;;;10.20;99.90;;;;;;6252799;28;20471;-60
2022/12/24 10:33:23;;;;;;;16.70;15.10;;;10.30;99.90;;;;;;6252495;28;20502;-60
2022/12/24 10:36:28;;;;;;;16.40;14.80;;;10.40;99.90;;;;;;6252549;28;20450;-60
2022/12/24 10:39:32;;;;;;;16.97;15.27;;;10.60;99.90;;;;;;6251863;28;20490;-60
2022/12/24 10:42:41;;;;;;;15.77;14.20;;;10.60;99.90;;;;;;6251837;28;20443;-60
2022/12/24 10:45:59;;;;;;;17.63;14.30;;;10.50;99.90;;;;;;6256835;28;20551;-60
2022/12/24 10:49:05;;;;;;;17.20;14.77;;;10.30;99.90;;;;;;6276931;28;20504;-60
2022/12/24 10:52:12;;;;;;;15.97;14.30;;;10.40;99.90;;;;;;6277054;28;20497;-60
2022/12/24 10:55:24;;;;;;;17.80;14.80;;;10.50;99.90;;;;;;6277078;28;20778;-60
2022/12/24 10:58:27;;;;;;;14.60;13.07;;;10.40;99.90;;;;;;6276626;28;20484;-60
2022/12/24 11:01:46;;;;;;;15.90;13.80;;;10.30;99.90;;;;;;6276807;28;20474;-60
2022/12/24 11:04:50;;;;;;;12.43;11.20;;;10.50;99.90;;;;;;6276804;28;20539;-60
2022/12/24 11:08:00;;;;;;;13.80;12.40;;;10.70;99.90;;;;;;6276683;28;20489;-61
2022/12/24 11:11:05;;;;;;;13.60;12.20;;;10.90;99.90;;;;;;6276602;28;20462;-61
2022/12/24 11:14:16;;;;;;;16.90;14.90;;;11.20;99.90;;;;;;6276421;28;20478;-61
2022/12/24 11:17:23;;;;;;;13.87;12.10;;;11.50;99.90;;;;;;6278374;28;20478;-61
2022/12/24 11:20:29;;;;;;;13.17;11.83;;;12.10;99.90;;;;;;6300939;28;20484;-61
2022/12/24 11:23:32;;;;;;;12.27;10.03;;;13.90;99.90;;;;;;6297020;28;20484;-61
2022/12/24 11:26:36;;;;;;;11.20;9.93;;;14.80;98.10;;;;;;6301300;28;20473;-61
2022/12/24 11:29:39;;;;;;;15.30;12.33;;;14.60;97.20;;;;;;6300998;28;20483;-60
2022/12/24 11:32:45;;;;;;;12.30;11.20;;;14.30;96.90;;;;;;6300846;28;20476;-60
2022/12/24 11:36:04;;;;;;;11.40;9.40;;;15.10;97.20;;;;;;6300787;28;20948;-60
2022/12/24 11:39:19;;;;;;;10.60;9.60;;;15.60;95.40;;;;;;6299492;28;20484;-60
2022/12/24 11:42:33;;;;;;;9.93;8.90;;;15.60;93.40;;;;;;6300696;28;20452;-60
2022/12/24 11:45:36;;;;;;;11.17;9.57;;;14.80;93.50;;;;;;6300466;28;20418;-60
2022/12/24 11:48:41;;;;;;;10.17;9.17;;;14.30;94.80;;;;;;6300354;28;20468;-61
2022/12/24 11:52:11;;;;;;;13.53;12.17;;;14.70;94.50;;;;;;6300645;28;20464;-60
2022/12/24 11:55:19;;;;;;;13.73;12.30;;;14.10;94.80;;;;;;6303057;28;20510;-60
2022/12/24 11:58:28;;;;;;;12.87;11.27;;;14.10;95.00;;;;;;6305026;28;20476;-60
2022/12/24 12:01:36;;;;;;;13.27;11.87;;;14.00;95.10;;;;;;6305082;28;20465;-60
2022/12/24 12:04:43;;;;;;;15.17;13.20;;;13.60;95.50;;;;;;6300848;28;20466;-60
2022/12/24 12:07:50;;;;;;;15.17;13.67;;;13.20;96.40;;;;;;6300060;28;20491;-60
2022/12/24 12:10:54;;;;;;;13.70;12.30;;;12.90;97.10;;;;;;6300058;28;20479;-60
2022/12/24 12:14:01;;;;;;;14.70;13.30;;;12.80;97.60;;;;;;6300028;28;20488;-60
2022/12/24 12:17:16;;;;;;;13.57;12.30;;;12.70;97.90;;;;;;6300003;28;20487;-61
2022/12/24 12:20:25;;;;;;;11.97;10.87;;;14.30;99.10;;;;;;6274718;28;20789;-61
2022/12/24 12:23:31;;;;;;;13.30;12.13;;;15.30;94.80;;;;;;6274852;28;20934;-60
2022/12/24 12:26:34;;;;;;;11.90;10.40;;;15.20;94.10;;;;;;6266167;28;20816;-60
2022/12/24 12:29:45;;;;;;;10.40;8.73;;;16.20;94.70;;;;;;6275256;28;20793;-61
2022/12/24 12:32:53;;;;;;;9.57;8.67;;;20.20;90.10;;;;;;6275862;28;20505;-61
2022/12/24 12:36:01;;;;;;;13.17;11.80;;;24.60;73.10;;;;;;6277709;28;20255;-61
2022/12/24 12:39:04;;;;;;;14.83;13.53;;;28.00;50.10;;;;;;6275102;28;20242;-62
2022/12/24 12:42:16;;;;;;;12.40;11.40;;;30.50;42.00;;;;;;6274932;28;20556;-61
2022/12/24 12:45:39;;;;;;;9.77;8.80;;;32.10;34.30;;;;;;6275032;28;20223;-61
2022/12/24 12:48:54;;;;;;;20.07;17.97;;;32.90;30.00;;;;;;6275227;28;20650;-61
2022/12/24 12:52:16;;;;;;;12.43;11.23;;;33.50;28.70;;;;;;6274692;28;20226;-61
2022/12/24 12:55:32;;;;;;;13.85;12.65;;;33.90;27.60;;;;;;6274626;28;20231;-60
2022/12/24 12:58:41;;;;;;;10.23;9.27;;;34.60;26.70;;;;;;6274624;28;20226;-60
2022/12/24 13:01:53;;;;;;;9.85;9.05;;;35.30;25.80;;;;;;6274915;28;20227;-61
2022/12/24 13:05:36;;;;;;;11.55;10.52;;;35.60;24.40;;;;;;6274600;28;20579;-60
2022/12/24 13:09:04;;;;;;;13.70;12.40;;;33.40;25.40;;;;;;6267847;28;20234;-61
2022/12/24 13:12:26;;;;;;;10.73;9.83;;;29.90;27.80;;;;;;6279281;28;20547;-62
2022/12/24 13:15:47;;;;;;;12.40;11.10;;;27.40;31.10;;;;;;6253941;28;20374;-60
2022/12/24 13:19:09;;;;;;;12.30;11.10;;;27.20;30.90;;;;;;6268597;28;20238;-61
2022/12/24 13:22:17;;;;;;;19.80;16.90;;;27.70;31.30;;;;;;6279366;28;20227;-61
2022/12/24 13:25:26;;;;;;;12.70;11.50;;;29.00;30.10;;;;;;6287244;28;20533;-61
2022/12/24 13:28:35;;;;;;;13.13;11.83;;;29.50;29.10;;;;;;6303730;28;20601;-61
2022/12/24 13:31:39;;;;;;;23.60;21.00;;;27.30;30.60;;;;;;6303720;28;20273;-61
2022/12/24 13:34:48;;;;;;;18.80;16.90;;;25.30;33.70;;;;;;6303542;28;20231;-60
2022/12/24 13:37:52;;;;;;;13.10;11.80;;;24.10;36.10;;;;;;6303229;28;20234;-61
2022/12/24 13:41:17;;;;;;;19.30;17.40;;;24.80;35.70;;;;;;6303411;28;20230;-61
2022/12/24 13:44:32;;;;;;;12.50;11.40;;;26.40;34.40;;;;;;6303299;28;20222;-61
2022/12/24 13:47:40;;;;;;;17.03;15.07;;;28.00;31.70;;;;;;6303402;28;20647;-61
2022/12/24 13:50:45;;;;;;;30.37;25.00;;;26.80;32.10;;;;;;6303495;28;20230;-61
2022/12/24 13:53:49;;;;;;;33.10;25.50;;;27.40;32.30;;;;;;6302928;28;20246;-61
2022/12/24 13:56:52;;;;;;;28.60;24.60;;;27.60;31.40;;;;;;6303078;28;20524;-61
2022/12/24 14:00:01;;;;;;;20.70;18.50;;;26.10;33.00;;;;;;6302688;28;20683;-61
2022/12/24 14:03:16;;;;;;;20.97;18.97;;;24.00;35.70;;;;;;6302668;28;20227;-61
2022/12/24 14:06:24;;;;;;;20.63;18.67;;;22.50;38.90;;;;;;6303137;28;20239;-61
2022/12/24 14:09:29;;;;;;;12.80;11.60;;;22.00;39.60;;;;;;6277937;28;20671;-61
2022/12/24 14:12:46;;;;;;;14.50;13.20;;;21.80;41.10;;;;;;6279883;28;20248;-61
2022/12/24 14:16:04;;;;;;;14.50;13.37;;;22.30;40.70;;;;;;6303170;28;20237;-61
2022/12/24 14:19:14;;;;;;;13.73;12.53;;;23.00;39.80;;;;;;6295407;28;20734;-61
2022/12/24 14:22:28;;;;;;;13.77;12.57;;;23.20;39.70;;;;;;6277537;28;20243;-61
2022/12/24 14:25:32;;;;;;;11.80;10.70;;;22.50;39.90;;;;;;6277704;28;20319;-61
2022/12/24 14:28:40;;;;;;;13.30;12.03;;;21.20;41.50;;;;;;6277374;28;20236;-61
2022/12/24 14:31:52;;;;;;;10.70;9.73;;;19.90;43.80;;;;;;6277329;28;20236;-61
2022/12/24 14:35:14;;;;;;;12.50;11.20;;;18.60;46.10;;;;;;6277827;28;20377;-61
2022/12/24 14:38:20;;;;;;;10.50;9.60;;;17.60;48.20;;;;;;6277038;28;20478;-61
2022/12/24 14:41:33;;;;;;;11.83;10.83;;;16.70;50.20;;;;;;6277120;28;20545;-60
2022/12/24 14:44:46;;;;;;;11.60;10.50;;;15.90;52.30;;;;;;6277056;28;20798;-60
2022/12/24 14:47:59;;;;;;;11.80;9.80;;;15.20;54.00;;;;;;6277036;28;20478;-60
2022/12/24 14:51:11;;;;;;;10.13;9.13;;;14.70;55.70;;;;;;6276837;28;20469;-60
2022/12/24 14:54:31;;;;;;;12.67;11.50;;;14.10;57.80;;;;;;6277265;28;20477;-60
2022/12/24 14:57:34;;;;;;;45.13;29.97;;;13.60;60.50;;;;;;6276618;28;20540;-60
2022/12/24 15:00:37;;;;;;;39.90;27.20;;;13.30;64.10;;;;;;6276412;28;20874;-60
2022/12/24 15:03:43;;;;;;;36.23;25.40;;;12.90;66.50;;;;;;6276590;28;20533;-60
2022/12/24 15:06:49;;;;;;;80.63;47.17;;;12.50;69.70;;;;;;6276960;28;20470;-60
2022/12/24 15:09:53;;;;;;;349.80;179.80;;;12.20;73.60;;;;;;6276680;28;20488;-60
2022/12/24 15:12:57;;;;;;;76.13;43.40;;;12.00;76.70;;;;;;6276085;28;20485;-60
2022/12/24 15:16:03;;;;;;;20.63;15.70;;;11.80;79.90;;;;;;6276004;28;20470;-60
2022/12/24 15:19:15;;;;;;;13.60;12.07;;;11.50;83.70;;;;;;6276521;28;20829;-60
2022/12/24 15:22:24;;;;;;;17.57;13.10;;;11.40;87.00;;;;;;6276789;28;20481;-60
2022/12/24 15:25:29;;;;;;;41.63;24.70;;;11.20;89.70;;;;;;6276391;28;20481;-59
2022/12/24 15:28:38;;;;;;;33.97;20.87;;;11.00;91.20;;;;;;6275811;28;20474;-60
2022/12/24 15:31:41;;;;;;;25.77;18.20;;;10.90;92.30;;;;;;6280739;28;20925;-60
2022/12/24 15:34:47;;;;;;;20.97;14.77;;;10.70;93.10;;;;;;6300398;28;20489;-59
2022/12/24 15:37:50;;;;;;;22.70;14.20;;;10.60;94.10;;;;;;6300404;28;20477;-59
2022/12/24 15:40:54;;;;;;;123.03;48.90;;;10.50;95.00;;;;;;6300608;28;20944;-59
2022/12/24 15:44:01;;;;;;;84.53;36.10;;;10.40;95.70;;;;;;6300545;28;20469;-60
2022/12/24 15:47:07;;;;;;;231.77;73.20;;;10.30;96.40;;;;;;6300408;28;20480;-60
2022/12/24 15:50:22;;;;;;;142.93;46.27;;;10.20;97.10;;;;;;6300426;28;20526;-60
2022/12/24 15:53:30;;;;;;;36.07;19.40;;;10.10;97.80;;;;;;6300004;28;20979;-60
2022/12/24 15:56:42;;;;;;;144.93;50.40;;;10.00;98.20;;;;;;6300101;28;20771;-60
2022/12/24 15:59:52;;;;;;;146.33;60.53;;;9.90;99.20;;;;;;6299910;28;20618;-60
2022/12/24 16:02:56;;;;;;;160.00;60.80;;;9.80;99.70;;;;;;6300054;28;20474;-60
2022/12/24 16:06:02;;;;;;;65.77;31.30;;;9.60;99.90;;;;;;6299902;28;20484;-60
2022/12/24 16:09:40;;;;;;;79.67;37.00;;;9.50;99.90;;;;;;6299362;28;20996;-60
2022/12/24 16:12:43;;;;;;;95.63;41.60;;;9.50;99.90;;;;;;6274931;28;20458;-60